Details From LFPG - Paris Charles De Gaulle
To EGBB - Birmingham
Flight Number -
Tags generated
Created
Modified
Stats Distance 265 nm / 490 km
Max Altitude 32,600 ft / 9,936 m
Waypoints 4
Social Downloads 4
Likes 0
Share VATSIM

Download

Looking for another format? Having issues loading an existing format? Contact us
Advertisement - Login to hide

Notes

Basic altitude profile: - Ascent Rate: 2500ft/min - Ascent Speed: 250kts - Cruise Altitude: 24000ft - Cruise Speed: 300kts - Descent Rate: 1500ft/min - Descent Speed: 250kts Options: - Use NATs: yes - Use PACOTS: yes - Use low airways: yes - Use high airways: yes

Route

LFPG GURLU UM733 BIG EGBB

ID Type Via Altitude (ft/m) Position (lat/lon) Dist (leg/tot) Name
O LFPG APT - 0 / 0 49.00974 / 2.56262 - / 0 nm Paris Charles De Gaulle
GURLU FIX - 32,600 / 9,936 50.47778 / 0.96861 107 / 107 nm
BIG VOR UM733 (AWY-HI) 24,500 / 7,468 51.33087 / 0.03481 62 / 169 nm BIGGIN VOR-DME
O EGBB APT - 0 / 0 52.45597 / -1.75038 94 / 264 nm Birmingham

Altitude Profile

Advertisement - Login to hide

Weather


0- 5 10 15 20 25 30 35+ Temperature / °C

Clouds and Precipitation
Forecast for 2018-09-25 00:00 UTC. Updated 4 hours ago

Ground ~20,000 ft ~40,000 ft Winds

LFPG

Details ICAO LFPG (CDG)
Name Paris Charles De Gaulle
Region France
Timezone Europe/Paris (UTC+2.0)
Stats Elevation 392 ft / 119 m (AMSL)
Location 49.009700° 2.562620°
Runways 4
Magnetic Variation 0.746° E

METAR

LFPG 250130Z 04008KT 030V090 CAVOK 07/05 Q1037 NOSIG

Decode

TAF

TAF LFPG 242300Z 2500/2606 03006KT CAVOK TX16/2514Z TN06/2506Z= TAF LFPO 242300Z 2500/2606 03010KT CAVOK

Decode

Departure Runways

ID Width Length Bearing (true/mag) Surface Threshold Overrun Markings Lighting
08L 148 ft / 45 m 13,800 ft / 4,206 m 85.33° / 84.59° ASPHALT 0 ft / 0 m 194 ft / 59 m PREC-APP CENTERLINE EDGE THRESHOLD SALS TDZ REIL-OMNI
08R 197 ft / 60 m 8,840 ft / 2,695 m 85.32° / 84.58° ASPHALT 0 ft / 0 m 194 ft / 59 m PREC-APP CENTERLINE EDGE THRESHOLD SALS TDZ REIL-OMNI
09L 197 ft / 60 m 8,835 ft / 2,693 m 85.39° / 84.64° ASPHALT 0 ft / 0 m 217 ft / 66 m PREC-APP CENTERLINE EDGE THRESHOLD TDZ REIL-OMNI
09R 148 ft / 45 m 13,743 ft / 4,189 m 85.29° / 84.55° ASPHALT 0 ft / 0 m 194 ft / 59 m PREC-APP CENTERLINE EDGE THRESHOLD SALS TDZ REIL-OMNI
26L 197 ft / 60 m 8,840 ft / 2,695 m 265.35° / 264.60° ASPHALT 0 ft / 0 m 194 ft / 59 m PREC-APP CENTERLINE EDGE THRESHOLD SALS TDZ REIL-OMNI
26R 148 ft / 45 m 13,800 ft / 4,206 m 265.38° / 264.63° ASPHALT 1,962 ft / 598 m 200 ft / 61 m PREC-APP CENTERLINE EDGE THRESHOLD SALS TDZ REIL-OMNI
27L 148 ft / 45 m 13,743 ft / 4,189 m 265.34° / 264.59° ASPHALT 1,968 ft / 600 m 0 ft / 0 m PREC-APP CENTERLINE EDGE THRESHOLD SALS TDZ REIL-OMNI
27R 197 ft / 60 m 8,835 ft / 2,693 m 265.41° / 264.67° ASPHALT 0 ft / 0 m 220 ft / 67 m PREC-APP CENTERLINE EDGE THRESHOLD TDZ REIL-OMNI

EGBB

Details ICAO EGBB (BHX)
Name Birmingham
Region United Kingdom
Timezone Europe/London (UTC+1.0)
Stats Elevation 338 ft / 103 m (AMSL)
Location 52.454300° -1.748520°
Runways 1
Magnetic Variation 1.020° W

METAR

EGBB 250120Z 17003KT CAVOK 04/03 Q1039

Decode

TAF

TAF EGBB 242301Z 2500/2524 VRB03KT 9999 FEW045 PROB30 2502/2508 6000 BECMG 2509/2512 21010KT

Decode

Destination Runways

ID Width Length Bearing (true/mag) Surface Threshold Overrun Markings Lighting
15 148 ft / 45 m 9,999 ft / 3,048 m 145.88° / 146.90° ASPHALT 922 ft / 281 m 0 ft / 0 m PREC-APP CENTERLINE EDGE THRESHOLD CALVERT-ILS REIL-OMNI
33 148 ft / 45 m 9,999 ft / 3,048 m 325.90° / 326.92° ASPHALT 663 ft / 202 m 0 ft / 0 m PREC-APP CENTERLINE EDGE THRESHOLD CALVERT-ILS REIL-OMNI

Approach Navaids

Runway Type Ident Frequency Range Bearing (true/mag) Slope Elevation
15 LOC-ILS IBIR 110.10 MHz 25 nm / 46 km 145.90° / 146.92 ° - 337 ft / 103 m (AMSL)
15 DME IBIR 110.10 MHz 18 nm / 33 km - - 349 ft / 106 m (AMSL)
15 GS IBIR 110.10 MHz 25 nm / 46 km 145.90° / 146.92 ° 3.00° 337 ft / 103 m (AMSL)
33 DME IBM 110.10 MHz 18 nm / 33 km - - 327 ft / 100 m (AMSL)
33 GS IBM 110.10 MHz 25 nm / 46 km 325.90° / 326.92 ° 3.00° 337 ft / 103 m (AMSL)
33 LOC-ILS IBM 110.10 MHz 25 nm / 46 km 325.90° / 326.92 ° - 337 ft / 103 m (AMSL)

Popular Alternatives